Time;durP1;ratioP1;P1;durP2;ratioP2;P2;SDS_P1;SDS_P2;PMS_P1;PMS_P2;Temp;Humidity;BMP_temperature;BMP_pressure;BME280_temperature;BME280_humidity;BME280_pressure;Samples;Min_cycle;Max_cycle;Signal;HPM_P1;HPM_P2
2022/08/19 00:00:50;;;;;;;6.60;6.00;;;;;;;;;;1859303;77;26731;-46
2022/08/19 00:03:17;;;;;;;6.87;6.10;;;;;;;;;;1858138;76;26290;-47
2022/08/19 00:05:45;;;;;;;6.65;6.05;;;;;;;;;;1876235;75;26792;-49
2022/08/19 00:08:12;;;;;;;6.60;6.00;;;;;;;;;;1876273;76;26335;-50
2022/08/19 00:10:39;;;;;;;6.50;5.90;;;;;;;;;;1876434;76;26332;-45
2022/08/19 00:13:07;;;;;;;6.78;6.08;;;;;;;;;;1876419;76;26277;-45
2022/08/19 00:15:34;;;;;;;7.22;6.10;;;;;;;;;;1876635;75;26285;-47
2022/08/19 00:18:01;;;;;;;7.00;6.37;;;;;;;;;;1875147;75;26273;-47
2022/08/19 00:20:29;;;;;;;6.90;6.28;;;;;;;;;;1876003;76;26261;-48
2022/08/19 00:22:56;;;;;;;6.95;6.25;;;;;;;;;;1876261;76;26281;-49
2022/08/19 00:25:23;;;;;;;6.75;6.15;;;;;;;;;;1875849;76;26255;-46
2022/08/19 00:27:50;;;;;;;6.67;6.08;;;;;;;;;;1876171;76;26795;-49
2022/08/19 00:30:18;;;;;;;7.03;6.12;;;;;;;;;;1876157;75;26713;-47
2022/08/19 00:32:45;;;;;;;6.83;6.22;;;;;;;;;;1876207;76;26359;-47
2022/08/19 00:35:13;;;;;;;7.20;6.50;;;;;;;;;;1875080;76;26258;-49
2022/08/19 00:37:43;;;;;;;7.47;6.12;;;;;;;;;;1876171;76;26671;-45
2022/08/19 00:40:10;;;;;;;7.28;6.60;;;;;;;;;;1879072;75;26275;-46
2022/08/19 00:42:38;;;;;;;7.25;6.50;;;;;;;;;;1863249;76;26214;-47
2022/08/19 00:45:07;;;;;;;6.50;5.87;;;;;;;;;;1872758;75;26352;-47
2022/08/19 00:47:34;;;;;;;7.35;6.70;;;;;;;;;;1875783;75;26271;-49
2022/08/19 00:50:01;;;;;;;7.85;6.70;;;;;;;;;;1876022;76;25632;-49
2022/08/19 00:52:36;;;;;;;8.15;6.37;;;;;;;;;;1862407;76;26289;-49
2022/08/19 00:55:05;;;;;;;7.30;6.60;;;;;;;;;;1874627;76;26262;-48
2022/08/19 00:57:34;;;;;;;7.65;6.95;;;;;;;;;;1857054;75;26310;-46
2022/08/19 01:00:02;;;;;;;7.15;6.55;;;;;;;;;;1860786;76;26281;-45
2022/08/19 01:02:31;;;;;;;7.30;6.60;;;;;;;;;;1867892;76;26348;-47
2022/08/19 01:04:59;;;;;;;7.78;6.95;;;;;;;;;;1842191;75;26254;-46
2022/08/19 01:07:27;;;;;;;7.78;7.05;;;;;;;;;;1852601;76;26353;-47
2022/08/19 01:09:54;;;;;;;8.20;7.40;;;;;;;;;;1853944;76;26263;-44
2022/08/19 01:12:22;;;;;;;7.78;7.03;;;;;;;;;;1858245;76;26330;-47
2022/08/19 01:14:49;;;;;;;7.70;7.00;;;;;;;;;;1837569;76;26324;-47
2022/08/19 01:17:17;;;;;;;7.97;7.28;;;;;;;;;;1849187;76;26274;-46
2022/08/19 01:19:46;;;;;;;7.65;6.90;;;;;;;;;;1860005;77;26249;-44
2022/08/19 01:22:21;;;;;;;7.65;6.95;;;;;;;;;;1860404;76;26358;-45
2022/08/19 01:24:48;;;;;;;7.92;7.15;;;;;;;;;;1860270;77;26325;-47
2022/08/19 01:27:15;;;;;;;7.65;6.95;;;;;;;;;;1846500;77;26250;-46
2022/08/19 01:29:44;;;;;;;7.97;7.17;;;;;;;;;;1860437;77;26325;-44
2022/08/19 01:32:13;;;;;;;8.15;7.37;;;;;;;;;;1835096;76;26358;-46
2022/08/19 01:34:40;;;;;;;7.78;7.00;;;;;;;;;;1842143;76;26396;-47
2022/08/19 01:37:12;;;;;;;8.28;7.47;;;;;;;;;;1860462;76;26706;-46
2022/08/19 01:39:40;;;;;;;8.15;7.35;;;;;;;;;;1857667;75;26649;-46
2022/08/19 01:42:11;;;;;;;7.92;7.12;;;;;;;;;;1844659;76;26211;-47
2022/08/19 01:44:39;;;;;;;8.33;7.50;;;;;;;;;;1842657;76;26312;-46
2022/08/19 01:47:07;;;;;;;7.97;7.28;;;;;;;;;;1861438;75;26275;-45
2022/08/19 01:49:35;;;;;;;8.23;7.42;;;;;;;;;;1856732;77;26715;-46
2022/08/19 01:52:03;;;;;;;8.55;7.67;;;;;;;;;;1851086;77;26269;-46
2022/08/19 01:54:31;;;;;;;7.45;6.83;;;;;;;;;;1847856;77;26271;-46
2022/08/19 01:57:06;;;;;;;8.23;7.50;;;;;;;;;;1844043;77;26366;-45
2022/08/19 01:59:36;;;;;;;8.23;7.47;;;;;;;;;;1856683;75;26291;-46
2022/08/19 02:02:05;;;;;;;8.35;7.55;;;;;;;;;;1860338;77;26360;-47
2022/08/19 02:04:33;;;;;;;7.40;6.80;;;;;;;;;;1846669;76;26257;-46
2022/08/19 02:07:01;;;;;;;7.83;7.12;;;;;;;;;;1828581;77;26333;-46
2022/08/19 02:09:28;;;;;;;8.73;7.80;;;;;;;;;;1840508;76;26277;-46
2022/08/19 02:11:55;;;;;;;7.70;7.00;;;;;;;;;;1842536;77;26224;-47
2022/08/19 02:14:23;;;;;;;7.50;6.87;;;;;;;;;;1845177;77;26294;-48
2022/08/19 02:16:50;;;;;;;8.20;7.40;;;;;;;;;;1827871;77;26692;-47
2022/08/19 02:19:17;;;;;;;7.87;7.17;;;;;;;;;;1821628;78;26254;-46
2022/08/19 02:21:45;;;;;;;8.63;7.80;;;;;;;;;;1844277;77;26263;-49
2022/08/19 02:24:12;;;;;;;9.03;7.80;;;;;;;;;;1845274;77;27412;-45
2022/08/19 02:26:40;;;;;;;8.65;7.75;;;;;;;;;;1845209;77;26367;-47
2022/08/19 02:29:07;;;;;;;8.60;7.10;;;;;;;;;;1845301;77;26357;-46
2022/08/19 02:31:35;;;;;;;8.80;7.90;;;;;;;;;;1848356;77;26208;-49
2022/08/19 02:34:03;;;;;;;7.90;7.17;;;;;;;;;;1844433;76;26243;-48
2022/08/19 02:36:30;;;;;;;8.50;7.67;;;;;;;;;;1824237;77;26335;-48
2022/08/19 02:38:58;;;;;;;8.48;7.65;;;;;;;;;;1816949;76;26344;-46
2022/08/19 02:41:27;;;;;;;8.40;7.55;;;;;;;;;;1817904;77;26274;-46
2022/08/19 02:43:57;;;;;;;10.15;7.53;;;;;;;;;;1835335;77;26277;-45
2022/08/19 02:46:26;;;;;;;9.20;7.60;;;;;;;;;;1825054;77;26313;-46
2022/08/19 02:48:55;;;;;;;8.13;7.30;;;;;;;;;;1832734;77;26334;-48
2022/08/19 02:51:26;;;;;;;8.68;7.42;;;;;;;;;;1843990;77;26913;-46
2022/08/19 02:53:54;;;;;;;8.35;7.50;;;;;;;;;;1840031;77;26294;-47
2022/08/19 02:56:22;;;;;;;8.43;7.40;;;;;;;;;;1826601;76;26219;-48
2022/08/19 02:58:49;;;;;;;7.78;7.08;;;;;;;;;;1844428;77;26728;-47
2022/08/19 03:01:23;;;;;;;8.75;7.78;;;;;;;;;;1844137;76;26325;-46
2022/08/19 03:03:51;;;;;;;8.28;7.53;;;;;;;;;;1838924;77;26361;-46
2022/08/19 03:06:19;;;;;;;8.88;7.50;;;;;;;;;;1859718;76;26330;-47
2022/08/19 03:08:48;;;;;;;8.53;7.65;;;;;;;;;;1835581;76;26255;-46
2022/08/19 03:11:25;;;;;;;8.45;7.55;;;;;;;;;;1831684;77;26337;-47
2022/08/19 03:13:54;;;;;;;8.08;7.22;;;;;;;;;;1845033;77;26267;-46
2022/08/19 03:16:22;;;;;;;8.10;7.40;;;;;;;;;;1845414;77;26802;-47
2022/08/19 03:18:50;;;;;;;8.25;7.45;;;;;;;;;;1844796;77;26304;-46
2022/08/19 03:21:19;;;;;;;9.55;7.35;;;;;;;;;;1841664;77;26315;-46
2022/08/19 03:23:46;;;;;;;8.35;7.42;;;;;;;;;;1837351;76;26265;-47
2022/08/19 03:26:17;;;;;;;9.58;7.65;;;;;;;;;;1848611;76;26272;-48
2022/08/19 03:28:49;;;;;;;8.55;7.75;;;;;;;;;;1853960;76;26341;-48
2022/08/19 03:31:14;;;;;;;8.90;7.58;;;;;;;;;;1844547;77;26342;-48
2022/08/19 03:33:42;;;;;;;8.90;8.05;;;;;;;;;;1845254;77;26338;-46
2022/08/19 03:36:10;;;;;;;8.40;7.55;;;;;;;;;;1845296;77;26325;-46
2022/08/19 03:38:40;;;;;;;8.45;7.62;;;;;;;;;;1854258;76;26193;-48
2022/08/19 03:41:08;;;;;;;7.62;6.92;;;;;;;;;;1848475;76;26283;-47
2022/08/19 03:43:36;;;;;;;8.18;7.45;;;;;;;;;;1831686;77;26332;-47
2022/08/19 03:46:06;;;;;;;8.25;7.30;;;;;;;;;;1844394;77;26703;-48
2022/08/19 03:48:34;;;;;;;8.50;7.60;;;;;;;;;;1843510;77;26322;-49
2022/08/19 03:51:01;;;;;;;8.18;7.37;;;;;;;;;;1843381;77;26282;-46
2022/08/19 03:53:30;;;;;;;8.60;7.70;;;;;;;;;;1843455;77;26282;-46
2022/08/19 03:55:59;;;;;;;8.00;7.20;;;;;;;;;;1843129;76;26286;-47
2022/08/19 03:58:28;;;;;;;8.53;7.65;;;;;;;;;;1834148;77;26411;-48
2022/08/19 04:00:58;;;;;;;8.70;7.75;;;;;;;;;;1841038;77;26275;-47
2022/08/19 04:03:26;;;;;;;9.30;7.55;;;;;;;;;;1834467;77;26338;-45
2022/08/19 04:05:54;;;;;;;8.48;7.67;;;;;;;;;;1834697;77;26660;-49
2022/08/19 04:08:22;;;;;;;8.45;7.62;;;;;;;;;;1815194;77;26871;-46
2022/08/19 04:10:49;;;;;;;8.30;7.50;;;;;;;;;;1818733;77;26359;-48
2022/08/19 04:13:18;;;;;;;8.30;7.50;;;;;;;;;;1819245;77;26560;-46
2022/08/19 04:15:46;;;;;;;8.10;7.30;;;;;;;;;;1840811;77;26354;-46
2022/08/19 04:18:14;;;;;;;8.33;7.53;;;;;;;;;;1841907;77;26259;-47
2022/08/19 04:20:42;;;;;;;9.65;7.70;;;;;;;;;;1843233;77;26653;-47
2022/08/19 04:23:10;;;;;;;8.18;7.30;;;;;;;;;;1844740;77;26723;-46
2022/08/19 04:25:42;;;;;;;7.55;6.85;;;;;;;;;;1845486;77;26283;-47
2022/08/19 04:28:10;;;;;;;8.30;7.50;;;;;;;;;;1840771;77;26747;-47
2022/08/19 04:30:41;;;;;;;7.85;7.10;;;;;;;;;;1843508;76;26203;-47
2022/08/19 04:33:09;;;;;;;7.75;7.05;;;;;;;;;;1825253;77;26325;-47
2022/08/19 04:35:37;;;;;;;9.05;7.42;;;;;;;;;;1841396;77;26349;-49
2022/08/19 04:38:05;;;;;;;8.63;6.78;;;;;;;;;;1840532;77;26259;-47
2022/08/19 04:43:18;;;;;;;7.58;6.83;;;;;;;;;;1835847;77;26278;-48
2022/08/19 04:45:45;;;;;;;7.70;7.00;;;;;;;;;;1836303;76;26239;-46
2022/08/19 04:48:13;;;;;;;8.10;7.30;;;;;;;;;;1841260;76;26308;-48
2022/08/19 04:50:41;;;;;;;7.50;6.80;;;;;;;;;;1842575;76;26247;-45
2022/08/19 04:53:09;;;;;;;8.15;6.75;;;;;;;;;;1841665;76;26348;-46
2022/08/19 04:55:38;;;;;;;7.90;6.80;;;;;;;;;;1841316;76;26295;-47
2022/08/19 04:58:06;;;;;;;7.70;7.00;;;;;;;;;;1840308;76;26315;-47
2022/08/19 05:00:33;;;;;;;7.97;6.30;;;;;;;;;;1836967;76;26227;-49
2022/08/19 05:03:01;;;;;;;7.40;6.65;;;;;;;;;;1838597;76;27391;-47
2022/08/19 05:05:31;;;;;;;9.03;6.92;;;;;;;;;;1852301;76;26326;-46
2022/08/19 05:07:58;;;;;;;7.12;6.40;;;;;;;;;;1858258;76;26915;-47
2022/08/19 05:10:25;;;;;;;8.35;6.92;;;;;;;;;;1850081;75;26293;-47
2022/08/19 05:12:53;;;;;;;10.13;7.15;;;;;;;;;;1855762;76;27244;-48
2022/08/19 05:15:20;;;;;;;11.43;7.58;;;;;;;;;;1856855;76;27337;-46
2022/08/19 05:22:32;;;;;;;9.95;6.75;;;;;;;;;;1860613;76;26876;-46
2022/08/19 05:23:01;;;;;;;14.93;7.50;;;;;;;;;;1860982;76;26364;-46
2022/08/19 05:25:28;;;;;;;9.53;7.47;;;;;;;;;;1850896;75;26324;-46
2022/08/19 05:27:56;;;;;;;8.28;6.72;;;;;;;;;;1859677;76;26256;-46
2022/08/19 05:30:23;;;;;;;7.50;6.62;;;;;;;;;;1849365;76;26351;-46
2022/08/19 05:32:51;;;;;;;7.85;6.60;;;;;;;;;;1848091;76;26331;-47
2022/08/19 05:35:18;;;;;;;8.95;6.35;;;;;;;;;;1859956;75;26271;-48
2022/08/19 05:37:46;;;;;;;6.87;6.20;;;;;;;;;;1850506;75;26864;-46
2022/08/19 05:40:13;;;;;;;7.70;6.87;;;;;;;;;;1852503;75;26767;-46
2022/08/19 05:42:40;;;;;;;9.78;6.62;;;;;;;;;;1857044;76;26253;-48
2022/08/19 05:45:08;;;;;;;9.33;7.10;;;;;;;;;;1859596;76;26207;-50
2022/08/19 05:47:36;;;;;;;9.43;7.25;;;;;;;;;;1858293;76;26693;-49
2022/08/19 05:50:04;;;;;;;8.63;7.30;;;;;;;;;;1857884;76;26380;-48
2022/08/19 05:52:31;;;;;;;8.35;7.40;;;;;;;;;;1855891;77;27423;-46
2022/08/19 05:54:59;;;;;;;11.70;7.37;;;;;;;;;;1855965;76;27412;-48
2022/08/19 05:57:28;;;;;;;9.48;7.15;;;;;;;;;;1856815;76;27731;-48
2022/08/19 05:59:56;;;;;;;8.55;7.25;;;;;;;;;;1859751;76;26444;-46
2022/08/19 06:02:24;;;;;;;9.08;7.12;;;;;;;;;;1860359;76;26282;-46
2022/08/19 06:04:51;;;;;;;8.13;7.00;;;;;;;;;;1860241;76;26313;-46
2022/08/19 06:07:19;;;;;;;8.03;7.22;;;;;;;;;;1844197;76;26560;-45
2022/08/19 06:09:46;;;;;;;8.75;7.08;;;;;;;;;;1845229;76;26291;-46
2022/08/19 06:12:13;;;;;;;8.25;6.85;;;;;;;;;;1845106;76;26259;-48
2022/08/19 06:14:41;;;;;;;9.33;7.05;;;;;;;;;;1845169;76;26344;-48
2022/08/19 06:17:08;;;;;;;8.73;6.85;;;;;;;;;;1846667;76;26295;-48
2022/08/19 06:19:39;;;;;;;10.38;7.08;;;;;;;;;;1844362;77;26262;-49
2022/08/19 06:22:06;;;;;;;8.78;6.95;;;;;;;;;;1844121;76;26343;-49
2022/08/19 06:24:34;;;;;;;8.83;6.90;;;;;;;;;;1839328;76;26738;-47
2022/08/19 06:27:05;;;;;;;7.37;6.45;;;;;;;;;;1840125;76;26288;-46
2022/08/19 06:29:33;;;;;;;8.00;6.50;;;;;;;;;;1837475;76;27593;-49
2022/08/19 06:32:02;;;;;;;6.85;6.15;;;;;;;;;;1841200;76;26364;-49
2022/08/19 06:34:30;;;;;;;7.08;6.08;;;;;;;;;;1841956;76;26339;-48
2022/08/19 06:37:01;;;;;;;7.80;6.28;;;;;;;;;;1838869;76;26263;-46
2022/08/19 06:39:29;;;;;;;8.08;6.50;;;;;;;;;;1836443;76;26270;-47
2022/08/19 06:41:57;;;;;;;9.08;6.35;;;;;;;;;;1839124;76;26341;-46
2022/08/19 06:44:26;;;;;;;7.22;6.03;;;;;;;;;;1839470;76;26270;-45
2022/08/19 06:46:54;;;;;;;10.10;6.60;;;;;;;;;;1840250;76;27608;-48
2022/08/19 06:49:22;;;;;;;8.48;6.17;;;;;;;;;;1835517;76;26301;-50
2022/08/19 06:51:50;;;;;;;10.00;6.35;;;;;;;;;;1830560;76;26927;-46
2022/08/19 06:54:17;;;;;;;6.87;6.17;;;;;;;;;;1837749;77;26357;-45
2022/08/19 06:56:45;;;;;;;8.03;6.22;;;;;;;;;;1828928;76;26388;-46
2022/08/19 06:59:14;;;;;;;8.05;5.87;;;;;;;;;;1840837;76;26763;-46
2022/08/19 07:01:48;;;;;;;6.50;5.75;;;;;;;;;;1839409;76;26325;-48
2022/08/19 07:04:17;;;;;;;8.10;5.97;;;;;;;;;;1842986;76;26340;-48
2022/08/19 07:06:44;;;;;;;8.30;5.65;;;;;;;;;;1836558;76;26389;-49
2022/08/19 07:09:13;;;;;;;8.00;6.00;;;;;;;;;;1840156;76;26251;-49
2022/08/19 07:11:42;;;;;;;6.75;5.67;;;;;;;;;;1844401;76;26190;-51
2022/08/19 07:14:09;;;;;;;6.83;5.58;;;;;;;;;;1842651;77;26263;-52
2022/08/19 07:16:36;;;;;;;7.90;5.58;;;;;;;;;;1840578;77;26272;-46
2022/08/19 07:19:04;;;;;;;7.55;5.37;;;;;;;;;;1842026;77;26817;-45
2022/08/19 07:21:31;;;;;;;6.72;5.30;;;;;;;;;;1842078;77;26372;-46
2022/08/19 07:23:59;;;;;;;11.38;5.53;;;;;;;;;;1841599;77;26290;-49
2022/08/19 07:26:28;;;;;;;5.78;5.25;;;;;;;;;;1835167;77;27397;-50
2022/08/19 07:28:56;;;;;;;8.68;5.30;;;;;;;;;;1843160;77;26765;-51
2022/08/19 07:31:24;;;;;;;7.00;5.35;;;;;;;;;;1848745;76;26318;-48
2022/08/19 07:33:52;;;;;;;8.48;5.10;;;;;;;;;;1840651;76;26723;-46
2022/08/19 07:36:21;;;;;;;7.85;5.60;;;;;;;;;;1837941;76;26302;-46
2022/08/19 07:38:49;;;;;;;7.28;4.72;;;;;;;;;;1842798;76;26268;-44
2022/08/19 07:41:18;;;;;;;5.75;4.70;;;;;;;;;;1839151;76;26774;-45
2022/08/19 07:43:46;;;;;;;8.45;5.10;;;;;;;;;;1844814;76;26232;-44
2022/08/19 07:46:13;;;;;;;6.87;4.83;;;;;;;;;;1839666;76;26264;-49
2022/08/19 07:48:41;;;;;;;7.42;5.03;;;;;;;;;;1841888;76;26290;-45
2022/08/19 07:51:10;;;;;;;5.45;4.75;;;;;;;;;;1842007;77;26658;-48
2022/08/19 07:53:38;;;;;;;5.08;4.45;;;;;;;;;;1845320;76;26743;-45
2022/08/19 07:56:06;;;;;;;6.62;4.83;;;;;;;;;;1844702;76;26290;-46
2022/08/19 07:58:35;;;;;;;5.55;4.72;;;;;;;;;;1843809;76;26278;-46
2022/08/19 08:01:04;;;;;;;4.92;4.53;;;;;;;;;;1843146;76;26263;-46
2022/08/19 08:09:20;;;;;;;4.85;4.45;;;;;;;;;;1853037;76;26706;-47
2022/08/19 08:11:49;;;;;;;7.00;4.85;;;;;;;;;;1860097;75;26324;-45
2022/08/19 08:14:18;;;;;;;5.90;4.83;;;;;;;;;;1847989;77;26274;-46
2022/08/19 08:16:45;;;;;;;5.33;4.60;;;;;;;;;;1852098;76;26811;-44
2022/08/19 08:19:18;;;;;;;4.95;4.37;;;;;;;;;;1848167;77;26255;-48
2022/08/19 08:21:42;;;;;;;5.83;4.78;;;;;;;;;;1853094;76;26344;-47
2022/08/19 08:24:10;;;;;;;4.83;4.35;;;;;;;;;;1850644;75;27656;-47
2022/08/19 08:26:38;;;;;;;5.72;4.37;;;;;;;;;;1850871;76;26324;-45
2022/08/19 08:29:07;;;;;;;6.70;4.80;;;;;;;;;;1856328;76;26278;-46
2022/08/19 08:31:34;;;;;;;5.40;4.90;;;;;;;;;;1843000;76;26727;-45
2022/08/19 08:34:02;;;;;;;4.85;4.45;;;;;;;;;;1839446;76;26272;-45
2022/08/19 08:36:33;;;;;;;5.37;4.85;;;;;;;;;;1852390;76;26299;-47
2022/08/19 08:38:58;;;;;;;5.10;4.60;;;;;;;;;;1829025;76;26398;-48
2022/08/19 08:41:40;;;;;;;7.15;4.80;;;;;;;;;;1857555;76;25856;-43
2022/08/19 08:44:09;;;;;;;4.65;4.25;;;;;;;;;;1850616;76;26298;-46
2022/08/19 08:46:40;;;;;;;5.40;4.90;;;;;;;;;;1853464;76;26277;-48
2022/08/19 08:49:09;;;;;;;5.53;4.90;;;;;;;;;;1856444;76;26367;-45
2022/08/19 08:51:41;;;;;;;5.35;4.72;;;;;;;;;;1851070;76;26269;-45
2022/08/19 08:54:09;;;;;;;5.97;4.50;;;;;;;;;;1855957;76;26270;-47
2022/08/19 08:56:38;;;;;;;5.90;4.33;;;;;;;;;;1843751;76;26677;-50
2022/08/19 08:59:08;;;;;;;5.03;4.50;;;;;;;;;;1851347;76;26828;-46
2022/08/19 09:01:35;;;;;;;4.78;4.37;;;;;;;;;;1828367;76;26260;-47
2022/08/19 09:04:04;;;;;;;4.83;4.35;;;;;;;;;;1851167;76;26364;-47
2022/08/19 09:06:39;;;;;;;4.87;4.47;;;;;;;;;;1847618;76;26330;-47
2022/08/19 09:09:17;;;;;;;7.37;4.45;;;;;;;;;;1841087;76;26412;-48
2022/08/19 09:11:54;;;;;;;6.45;4.60;;;;;;;;;;1821294;77;26272;-48
2022/08/19 09:14:26;;;;;;;4.78;4.47;;;;;;;;;;1829928;78;26575;-49
2022/08/19 09:16:53;;;;;;;4.85;4.33;;;;;;;;;;1829547;77;26290;-48
2022/08/19 09:19:21;;;;;;;4.80;4.40;;;;;;;;;;1832407;77;26289;-47
2022/08/19 09:21:49;;;;;;;5.78;4.50;;;;;;;;;;1821097;76;26285;-51
2022/08/19 09:24:16;;;;;;;4.35;3.95;;;;;;;;;;1818723;77;26805;-47
2022/08/19 09:26:44;;;;;;;4.85;4.45;;;;;;;;;;1820093;77;26360;-47
2022/08/19 09:29:12;;;;;;;4.80;4.40;;;;;;;;;;1823752;77;26624;-49
2022/08/19 09:31:39;;;;;;;4.60;4.20;;;;;;;;;;1841928;77;26325;-47
2022/08/19 09:34:08;;;;;;;4.97;4.47;;;;;;;;;;1834999;77;27497;-47
2022/08/19 09:36:39;;;;;;;4.95;4.30;;;;;;;;;;1842015;76;26294;-48
2022/08/19 09:39:04;;;;;;;4.25;3.87;;;;;;;;;;1847548;76;26309;-47
2022/08/19 09:41:32;;;;;;;4.30;3.90;;;;;;;;;;1847917;76;26350;-50
2022/08/19 09:43:59;;;;;;;4.62;4.20;;;;;;;;;;1847254;77;26258;-47
2022/08/19 09:46:28;;;;;;;5.25;4.22;;;;;;;;;;1840804;77;26282;-49
2022/08/19 09:48:58;;;;;;;4.70;4.30;;;;;;;;;;1848618;76;27295;-47
2022/08/19 09:51:28;;;;;;;5.85;4.83;;;;;;;;;;1840911;77;26310;-47
2022/08/19 09:53:57;;;;;;;5.72;4.70;;;;;;;;;;1841538;77;27441;-47
2022/08/19 09:56:24;;;;;;;4.80;4.40;;;;;;;;;;1843271;77;26363;-47
2022/08/19 09:58:52;;;;;;;5.60;4.95;;;;;;;;;;1846701;76;26361;-48
2022/08/19 10:01:20;;;;;;;5.95;4.87;;;;;;;;;;1839444;76;27299;-48
2022/08/19 10:03:49;;;;;;;5.70;4.70;;;;;;;;;;1832136;77;26276;-48
2022/08/19 10:06:17;;;;;;;4.72;4.33;;;;;;;;;;1839453;77;26369;-51
2022/08/19 10:08:45;;;;;;;5.30;4.60;;;;;;;;;;1831050;76;26867;-48
2022/08/19 10:11:15;;;;;;;5.10;4.47;;;;;;;;;;1848544;76;25591;-47
2022/08/19 10:13:43;;;;;;;5.60;4.50;;;;;;;;;;1852851;75;27527;-48
2022/08/19 10:16:12;;;;;;;4.90;4.50;;;;;;;;;;1842440;76;26315;-49
2022/08/19 10:18:42;;;;;;;4.97;4.47;;;;;;;;;;1843885;76;26259;-49
2022/08/19 10:21:10;;;;;;;5.00;4.40;;;;;;;;;;1852759;76;26352;-50
2022/08/19 10:23:39;;;;;;;4.72;4.33;;;;;;;;;;1856237;76;26422;-47
2022/08/19 10:26:07;;;;;;;4.45;4.10;;;;;;;;;;1850253;75;26260;-50
2022/08/19 10:28:37;;;;;;;4.50;4.20;;;;;;;;;;1839191;77;26753;-50
2022/08/19 10:31:08;;;;;;;4.67;4.30;;;;;;;;;;1841375;77;26334;-49
2022/08/19 10:33:36;;;;;;;4.60;4.30;;;;;;;;;;1844422;75;26756;-48
2022/08/19 10:36:05;;;;;;;4.65;4.35;;;;;;;;;;1859265;75;26342;-47
2022/08/19 10:38:33;;;;;;;4.80;4.33;;;;;;;;;;1853292;76;26684;-48
2022/08/19 10:41:14;;;;;;;6.45;4.20;;;;;;;;;;1854330;76;26783;-43
2022/08/19 10:43:42;;;;;;;4.90;3.95;;;;;;;;;;1845216;75;26339;-47
2022/08/19 10:46:11;;;;;;;7.40;4.47;;;;;;;;;;1857085;76;26562;-47
2022/08/19 10:48:38;;;;;;;5.22;4.10;;;;;;;;;;1847664;76;26336;-48
2022/08/19 10:53:52;;;;;;;4.60;4.20;;;;;;;;;;1854529;75;26405;-44
2022/08/19 10:59:04;;;;;;;4.37;4.08;;;;;;;;;;1846394;75;26687;-47
2022/08/19 11:01:33;;;;;;;4.53;4.22;;;;;;;;;;1845283;76;26277;-45
2022/08/19 11:04:02;;;;;;;4.25;3.95;;;;;;;;;;1853520;75;26313;-45
2022/08/19 11:06:30;;;;;;;4.28;3.98;;;;;;;;;;1850245;76;26746;-46
2022/08/19 11:08:57;;;;;;;5.37;3.90;;;;;;;;;;1844374;76;27860;-48
2022/08/19 11:11:24;;;;;;;4.60;4.20;;;;;;;;;;1832566;77;26298;-47
2022/08/19 11:13:52;;;;;;;4.33;3.98;;;;;;;;;;1832091;76;26373;-45
2022/08/19 11:16:21;;;;;;;4.22;3.90;;;;;;;;;;1840010;76;26613;-47
2022/08/19 11:18:50;;;;;;;6.42;4.08;;;;;;;;;;1829963;77;26364;-44
2022/08/19 11:21:19;;;;;;;4.95;4.20;;;;;;;;;;1825931;76;26741;-43
2022/08/19 11:23:48;;;;;;;4.70;3.65;;;;;;;;;;1839878;76;27578;-46
2022/08/19 11:26:16;;;;;;;4.60;4.30;;;;;;;;;;1830614;76;26290;-44
2022/08/19 11:28:43;;;;;;;4.00;3.75;;;;;;;;;;1834465;76;26553;-48
2022/08/19 11:31:16;;;;;;;5.92;4.20;;;;;;;;;;1832215;77;26262;-47
2022/08/19 11:33:43;;;;;;;4.62;4.00;;;;;;;;;;1820445;78;27341;-46
2022/08/19 11:36:11;;;;;;;4.00;3.70;;;;;;;;;;1832229;77;26337;-45
2022/08/19 11:38:39;;;;;;;3.75;3.55;;;;;;;;;;1820135;77;26250;-49
2022/08/19 11:41:08;;;;;;;4.20;3.90;;;;;;;;;;1840618;76;26345;-47
2022/08/19 11:43:37;;;;;;;4.30;3.85;;;;;;;;;;1842386;77;26345;-46
2022/08/19 11:46:06;;;;;;;3.90;3.70;;;;;;;;;;1835750;76;26676;-43
2022/08/19 11:48:34;;;;;;;4.17;3.80;;;;;;;;;;1824531;77;27166;-46
2022/08/19 11:51:05;;;;;;;4.12;3.85;;;;;;;;;;1842952;77;25732;-46
2022/08/19 11:53:32;;;;;;;4.15;3.85;;;;;;;;;;1843620;76;26324;-50
2022/08/19 11:56:00;;;;;;;4.08;3.77;;;;;;;;;;1828836;76;27210;-47
2022/08/19 11:58:28;;;;;;;4.33;3.92;;;;;;;;;;1843144;77;26255;-45
2022/08/19 12:00:56;;;;;;;5.95;3.80;;;;;;;;;;1837802;76;26629;-49
2022/08/19 12:03:23;;;;;;;4.12;3.80;;;;;;;;;;1834677;76;26243;-45
2022/08/19 12:05:51;;;;;;;4.00;3.70;;;;;;;;;;1838490;76;26723;-46
2022/08/19 12:08:19;;;;;;;3.75;3.55;;;;;;;;;;1840189;76;26267;-46
2022/08/19 12:10:46;;;;;;;4.28;3.85;;;;;;;;;;1829097;76;26298;-48
2022/08/19 12:13:18;;;;;;;4.10;3.80;;;;;;;;;;1836741;76;26813;-46
2022/08/19 12:15:45;;;;;;;4.28;3.98;;;;;;;;;;1839636;76;27592;-44
2022/08/19 12:18:13;;;;;;;5.75;3.87;;;;;;;;;;1842005;76;26279;-48
2022/08/19 12:20:42;;;;;;;4.97;3.90;;;;;;;;;;1827865;77;26251;-47
2022/08/19 12:23:10;;;;;;;4.28;3.80;;;;;;;;;;1833628;76;26322;-47
2022/08/19 12:25:38;;;;;;;4.10;3.70;;;;;;;;;;1836123;77;26255;-46
2022/08/19 12:28:05;;;;;;;3.77;3.58;;;;;;;;;;1843360;76;26328;-49
2022/08/19 12:30:32;;;;;;;3.72;3.52;;;;;;;;;;1843925;76;26278;-48
2022/08/19 12:33:00;;;;;;;4.08;3.77;;;;;;;;;;1850155;76;26290;-46
2022/08/19 12:35:28;;;;;;;4.22;3.92;;;;;;;;;;1847264;77;25747;-47
2022/08/19 12:37:55;;;;;;;4.15;3.70;;;;;;;;;;1852180;76;26294;-48
2022/08/19 12:40:23;;;;;;;7.00;3.92;;;;;;;;;;1842685;76;26749;-52
2022/08/19 12:42:50;;;;;;;3.90;3.60;;;;;;;;;;1841291;76;27424;-50
2022/08/19 12:45:18;;;;;;;3.67;3.47;;;;;;;;;;1843546;77;26290;-49
2022/08/19 12:47:46;;;;;;;3.90;3.60;;;;;;;;;;1836359;77;26790;-48
2022/08/19 12:50:13;;;;;;;4.33;4.00;;;;;;;;;;1835068;77;26363;-47
2022/08/19 12:52:42;;;;;;;4.05;3.77;;;;;;;;;;1840758;76;26841;-47
2022/08/19 12:55:11;;;;;;;4.28;3.87;;;;;;;;;;1861527;76;26261;-47
2022/08/19 12:57:38;;;;;;;4.15;3.85;;;;;;;;;;1839403;77;26366;-48
2022/08/19 13:00:11;;;;;;;4.20;3.90;;;;;;;;;;1828003;78;26279;-47
2022/08/19 13:02:36;;;;;;;4.60;4.20;;;;;;;;;;1862933;76;26278;-49
2022/08/19 13:05:04;;;;;;;6.15;4.20;;;;;;;;;;1841468;77;26295;-48
2022/08/19 13:07:32;;;;;;;5.47;4.00;;;;;;;;;;1822867;77;26349;-47
2022/08/19 13:09:59;;;;;;;5.35;4.03;;;;;;;;;;1815784;76;26793;-47
2022/08/19 13:12:27;;;;;;;4.45;4.15;;;;;;;;;;1832217;76;26309;-50
2022/08/19 13:14:55;;;;;;;6.33;4.25;;;;;;;;;;1837290;77;26334;-45
2022/08/19 13:17:23;;;;;;;5.83;4.70;;;;;;;;;;1843213;76;26344;-46
2022/08/19 13:19:50;;;;;;;5.17;4.55;;;;;;;;;;1831396;76;26373;-47
2022/08/19 13:22:18;;;;;;;5.28;4.55;;;;;;;;;;1838547;76;27413;-49
2022/08/19 13:24:45;;;;;;;4.95;4.55;;;;;;;;;;1843318;76;26211;-46
2022/08/19 13:27:13;;;;;;;5.60;4.30;;;;;;;;;;1828487;76;26258;-49
2022/08/19 13:35:12;;;;;;;6.62;5.12;;;;;;;;;;1833195;77;26318;-46
2022/08/19 13:37:42;;;;;;;5.35;4.85;;;;;;;;;;1825352;76;26730;-51
2022/08/19 13:40:15;;;;;;;5.10;4.60;;;;;;;;;;1827523;76;26359;-51
2022/08/19 13:42:43;;;;;;;5.62;4.95;;;;;;;;;;1846237;76;26671;-46
2022/08/19 13:45:11;;;;;;;4.87;4.50;;;;;;;;;;1837078;76;26881;-48
2022/08/19 13:47:45;;;;;;;5.62;5.00;;;;;;;;;;1830388;76;26281;-49
2022/08/19 13:50:13;;;;;;;4.70;4.30;;;;;;;;;;1834258;77;27269;-49
2022/08/19 13:52:41;;;;;;;5.30;4.80;;;;;;;;;;1836536;77;26352;-52
2022/08/19 13:55:09;;;;;;;4.70;4.37;;;;;;;;;;1793668;78;26376;-44
2022/08/19 13:57:41;;;;;;;4.45;3.50;;;;;;;;;;1821854;78;26479;-45
2022/08/19 14:00:09;;;;;;;3.30;3.10;;;;;;;;;;1822711;76;26750;-44
2022/08/19 14:02:37;;;;;;;4.60;3.52;;;;;;;;;;1814168;77;26777;-46
2022/08/19 14:05:06;;;;;;;3.62;3.40;;;;;;;;;;1810802;77;27091;-46
2022/08/19 14:07:33;;;;;;;4.62;3.42;;;;;;;;;;1820202;77;26856;-45
2022/08/19 14:10:01;;;;;;;4.37;3.42;;;;;;;;;;1807652;78;26940;-48
2022/08/19 14:12:28;;;;;;;4.62;3.40;;;;;;;;;;1808105;77;26297;-46
2022/08/19 14:14:55;;;;;;;3.58;3.30;;;;;;;;;;1819118;77;26290;-47
2022/08/19 14:17:22;;;;;;;3.77;3.42;;;;;;;;;;1819367;78;26337;-44
2022/08/19 14:19:50;;;;;;;3.50;3.30;;;;;;;;;;1825411;77;26214;-46
2022/08/19 14:22:18;;;;;;;4.05;3.42;;;;;;;;;;1819121;77;26282;-45
2022/08/19 14:24:47;;;;;;;3.52;3.22;;;;;;;;;;1825740;78;26282;-47
2022/08/19 14:27:14;;;;;;;3.72;3.50;;;;;;;;;;1822156;78;26820;-44
2022/08/19 14:29:41;;;;;;;3.75;3.45;;;;;;;;;;1825758;78;26351;-44
2022/08/19 14:32:09;;;;;;;4.67;3.55;;;;;;;;;;1829318;77;26253;-45
2022/08/19 14:34:37;;;;;;;3.80;3.47;;;;;;;;;;1825517;77;26365;-44
2022/08/19 14:37:05;;;;;;;3.90;3.60;;;;;;;;;;1825965;78;26364;-45
2022/08/19 14:39:33;;;;;;;3.92;3.62;;;;;;;;;;1822664;78;26278;-44
2022/08/19 14:42:01;;;;;;;3.30;3.10;;;;;;;;;;1818078;78;26316;-44
2022/08/19 14:44:28;;;;;;;5.55;3.50;;;;;;;;;;1818241;78;26344;-47
2022/08/19 14:46:55;;;;;;;3.42;3.22;;;;;;;;;;1824547;78;26596;-46
2022/08/19 14:49:23;;;;;;;3.50;3.35;;;;;;;;;;1827394;77;26229;-47
2022/08/19 14:51:50;;;;;;;3.50;3.30;;;;;;;;;;1825154;78;26285;-46
2022/08/19 14:54:17;;;;;;;3.95;3.65;;;;;;;;;;1821853;78;26293;-43
2022/08/19 14:56:45;;;;;;;3.65;3.40;;;;;;;;;;1824597;78;26316;-46
2022/08/19 14:59:12;;;;;;;3.85;3.65;;;;;;;;;;1827706;77;26289;-45
2022/08/19 15:01:40;;;;;;;4.33;3.65;;;;;;;;;;1824924;78;26801;-49
2022/08/19 15:04:07;;;;;;;3.98;3.67;;;;;;;;;;1826829;78;26273;-47
2022/08/19 15:06:34;;;;;;;3.90;3.58;;;;;;;;;;1829301;78;26318;-42
2022/08/19 15:09:02;;;;;;;5.55;3.50;;;;;;;;;;1816824;78;26285;-45
2022/08/19 15:11:32;;;;;;;3.83;3.50;;;;;;;;;;1824606;77;26267;-56